Roscommon, MI

11:40 PM EDT on September 02, 2014 (GMT -0400)
Higgins Lake Point Detroit | Change Station
CLOSE
Current Station
Personal Weather Station
Location: Roscommon, MI
Elevation: 1165 ft
Nearby Weather Stations

Elev 1165 ft 44.47 °N, 84.71 °W | Updated 1 second ago

Partly Cloudy
Partly Cloudy
60.6 °F
Feels Like 60.6 °F
N
0.0
Wind Variable Wind from SSW
Gusts 3.1 mph

Today
High -- | Low -- °F
--% Chance of Precip.
Yesterday
High -- | Low -- °F
Precip. -- in
7:02 AM 8:13 PM
First Quarter, 58% visible
Pressure 29.92 in
Visibility 10.0 miles
Clouds Clear
Dew Point 55 °F
Humidity 81%
Rainfall 0.00 in
Snow Depth Not available.
UV 0 out of 12
Pollen 8.80 out of 12
Ozone Good
PM2.5 Good
Flu Activity Not available.
METAR KHTL 030253Z AUTO 00000KT 10SM CLR 13/13 A2992

More Conditions Fewer Conditions

Pressure 29.92 in
Visibility 10.0 miles
Clouds Clear
Dew Point 55 °F
Humidity 81%
Rainfall 0.00 in
Snow Depth Not available.
UV 0 out of 12
Pollen 8.80 out of 12
Ozone Good
PM2.5 Good
Flu Activity Not available.
METAR KHTL 030253Z AUTO 00000KT 10SM CLR 13/13 A2992

More Conditions Fewer Conditions

Nowcast | as of 11:00 PM EDT on September 2, 2014

At 12 am...mostly clear. Temperature 60. Light winds. At 2 am...mostly clear. Temperature 57. West winds 5 mph. At 4 am...mostly clear. Temperature 55. Southwest winds 5 mph. At 6 am...mostly clear. Temperature 53. Southwest winds 5 mph.

×

10-Day Weather Forecast

Almanac

Astronomy

Sep. 02, 2014 Rise Set
Actual Time 7:02 AM EDT 8:13 PM EDT
Civil Twilight 6:32 AM EDT 8:43 PM EDT
Nautical Twilight 5:56 AM EDT 9:18 PM EDT
Astronomical Twilight 5:18 AM EDT 9:56 PM EDT
Moon 3:02 PM EDT (9/2) No Moon Set
Length of Visible Light 14h 10m
Length of Day
13h 10m
Tomorrow will be 2m 58s shorter.
First Quarter, 58% of the Moon is Illuminated
Today
First Quarter
Sep 8
Full
Sep 15
Last Quarter
Sep 24
New
Oct 1
First Quarter

Today's Extremes

State Highs State Lows

Community

WunderPhotos

Upload Photos

1,749,867 photos uploaded!

WunderBlogs® & News

Nearby

Air Quality

  Air Quality AQ Index Pollutant
Yesterday Good
OZONE
Yesterday Good
PM2.5
Current Good
PM2.5
Current Good
OZONE
Tuesday Good
OZONE
Tuesday Good
PM2.5
Wednesday Good
OZONE
Wednesday Good
PM2.5
Thursday Good
OZONE
Thursday Good
PM2.5
Friday Good
OZONE
Friday Good
PM2.5
Saturday Good
OZONE
Saturday Good
PM2.5
Sunday Good
OZONE
Sunday Good
PM2.5

Snow Depth

Station Depth Elevation
No new snow has been reported.

Earthquake Activity

City Distance Mag. Time & Date
No recent earthquake activity has been reported nearby.
Minimum magnitude displayed is 2.5.

Coastal Water Temperatures

Place Temperature
No Stations Reporting

Nearby Weather Stations